Terminal Aerodrome Forecast
Issued by NWS Austin/San Antonio, TX

Home | Current Version | Previous Version | Text Only | Print | Product List | Glossary On
Versions: 1 2 3 4 5 6 7 8 9 10 11 12 13 14 15 16 17 18 19 20 21 22 23 24 25 26 27 28 29 30 31 32 33 34 35
000
FTUS44 KEWX 200528
TAFSAT
TAF
KSAT 200528Z 2006/2112 23010KT P6SM SKC
     FM201000 23003KT 3SM BR SCT003
      TEMPO 2011/2013 28003KT 1SM BR SCT003
     FM201400 29002KT 3SM BR SCT003
     FM201600 28006KT P6SM SCT250
     FM210000 18004KT P6SM SCT250=

USA.gov is the U.S. government's official web portal to all federal, state and local government web resources and services.